Time;durP1;ratioP1;P1;durP2;ratioP2;P2;SDS_P1;SDS_P2;PMS_P1;PMS_P2;Temp;Humidity;BMP_temperature;BMP_pressure;BME280_temperature;BME280_humidity;BME280_pressure;Samples;Min_cycle;Max_cycle;Signal;HPM_P1;HPM_P2
2022/08/27 00:01:47;;;;;;;7.88;2.92;;;;;;;16.51;77.79;101666.03;5033091;28;20025;-51
2022/08/27 00:04:12;;;;;;;4.95;2.40;;;;;;;16.49;77.41;101674.22;5017924;28;20036;-51
2022/08/27 00:06:38;;;;;;;5.82;2.50;;;;;;;16.44;78.02;101676.47;5022975;28;20024;-51
2022/08/27 00:09:04;;;;;;;6.43;3.20;;;;;;;16.41;77.07;101666.00;5032574;28;20029;-50
2022/08/27 00:11:29;;;;;;;9.88;2.60;;;;;;;16.37;77.67;101670.78;5033074;28;20104;-50
2022/08/27 00:13:55;;;;;;;8.30;2.70;;;;;;;16.36;78.59;101671.78;5021160;28;20436;-50
2022/08/27 00:16:21;;;;;;;3.95;2.60;;;;;;;16.31;78.12;101670.50;5032717;28;20032;-53
2022/08/27 00:18:47;;;;;;;6.43;3.10;;;;;;;16.30;79.12;101674.13;5032611;28;20048;-52
2022/08/27 00:21:12;;;;;;;8.15;3.53;;;;;;;16.23;80.34;101663.09;5032802;28;20025;-53
2022/08/27 00:23:38;;;;;;;6.20;2.92;;;;;;;16.24;79.71;101662.97;5030927;28;20033;-53
2022/08/27 00:26:05;;;;;;;9.23;3.42;;;;;;;16.23;79.33;101663.09;5032696;28;20026;-53
2022/08/27 00:28:32;;;;;;;8.50;3.05;;;;;;;16.22;79.58;101664.06;5019261;28;20048;-53
2022/08/27 00:30:57;;;;;;;6.10;2.83;;;;;;;16.15;79.39;101657.56;5032840;28;20029;-49
2022/08/27 00:33:24;;;;;;;8.53;2.67;;;;;;;16.08;79.63;101662.63;5032482;28;20026;-49
2022/08/27 00:35:50;;;;;;;8.15;2.95;;;;;;;16.08;80.26;101657.25;5032404;28;20279;-52
2022/08/27 00:38:16;;;;;;;9.02;2.97;;;;;;;16.08;80.24;101657.25;5029651;28;20025;-53
2022/08/27 00:40:42;;;;;;;4.78;2.92;;;;;;;16.01;79.49;101658.78;5032491;28;20026;-51
2022/08/27 00:43:08;;;;;;;8.55;3.15;;;;;;;15.97;79.73;101657.34;5021470;28;20116;-51
2022/08/27 00:45:38;;;;;;;6.00;2.67;;;;;;;15.91;80.00;101659.56;5032323;28;20387;-52
2022/08/27 00:48:06;;;;;;;7.82;2.88;;;;;;;15.86;80.39;101661.78;5032107;28;20411;-54
2022/08/27 00:53:07;;;;;;;7.50;3.40;;;;;;;15.77;80.80;101667.97;5059789;28;20053;-80
2022/08/27 00:55:38;;;;;;;8.02;3.60;;;;;;;15.67;80.02;101658.94;5051670;28;20499;-79
2022/08/27 00:58:17;;;;;;;7.93;3.92;;;;;;;15.67;80.47;101659.81;5035081;28;20033;-79
2022/08/27 01:00:45;;;;;;;6.38;3.80;;;;;;;15.59;80.53;101672.16;5047756;28;20025;-79
2022/08/27 01:03:12;;;;;;;4.95;3.75;;;;;;;15.59;80.59;101664.97;5037569;28;20029;-80
2022/08/27 01:05:38;;;;;;;6.28;3.72;;;;;;;15.59;80.92;101664.09;5053741;28;20025;-79
2022/08/27 01:08:13;;;;;;;7.22;4.05;;;;;;;15.56;80.80;101656.38;5051349;28;20022;-77
2022/08/27 01:10:40;;;;;;;6.68;3.78;;;;;;;15.53;80.67;101649.44;5051330;28;20122;-78
2022/08/27 01:13:19;;;;;;;9.68;4.05;;;;;;;15.48;80.46;101654.31;5046790;28;20476;-77
2022/08/27 01:15:45;;;;;;;8.98;3.92;;;;;;;15.43;80.93;101652.03;5058274;28;20056;-77
2022/08/27 01:18:12;;;;;;;7.38;3.58;;;;;;;15.38;80.74;101661.44;5050784;28;20029;-78
2022/08/27 01:20:51;;;;;;;9.93;3.88;;;;;;;15.34;80.96;101653.66;5055394;28;20610;-77
2022/08/27 01:23:25;;;;;;;7.22;4.00;;;;;;;15.33;80.95;101659.97;5056862;28;20305;-77
2022/08/27 01:25:51;;;;;;;5.65;3.53;;;;;;;15.26;80.79;101656.13;5051862;28;20032;-78
2022/08/27 01:28:17;;;;;;;5.65;3.85;;;;;;;15.19;81.82;101652.28;5056300;28;20372;-77
2022/08/27 01:30:43;;;;;;;10.82;4.10;;;;;;;15.24;81.59;101657.22;5051534;28;20037;-77
2022/08/27 01:33:13;;;;;;;7.20;4.47;;;;;;;15.17;82.17;101651.53;5063775;28;20153;-78
2022/08/27 01:35:40;;;;;;;7.68;4.65;;;;;;;15.07;82.32;101650.59;5065914;28;20029;-78
2022/08/27 01:38:05;;;;;;;8.55;4.57;;;;;;;15.08;82.63;101655.00;5053982;28;20029;-78
2022/08/27 01:40:31;;;;;;;6.30;3.97;;;;;;;15.09;82.33;101654.88;5040865;28;20056;-78
2022/08/27 01:42:57;;;;;;;6.22;4.00;;;;;;;15.03;82.79;101654.53;5068246;28;20455;-78
2022/08/27 01:45:28;;;;;;;11.48;4.20;;;;;;;15.07;82.23;101653.28;5043609;28;20033;-78
2022/08/27 01:47:54;;;;;;;11.77;4.53;;;;;;;14.98;82.75;101647.72;5050938;28;20028;-78
2022/08/27 01:50:32;;;;;;;6.53;4.13;;;;;;;14.95;82.08;101649.78;5066451;28;20028;-78
2022/08/27 01:53:03;;;;;;;7.93;4.03;;;;;;;14.93;82.05;101643.72;5064208;28;20479;-78
2022/08/27 01:55:28;;;;;;;7.72;3.97;;;;;;;14.89;82.45;101647.63;5049107;28;20056;-78
2022/08/27 01:57:55;;;;;;;8.88;4.07;;;;;;;14.85;82.09;101652.38;5048053;28;20029;-78
2022/08/27 02:00:30;;;;;;;8.07;3.95;;;;;;;14.79;82.42;101647.53;5042936;28;20080;-78
2022/08/27 02:02:57;;;;;;;7.72;4.25;;;;;;;14.80;81.97;101647.44;5039528;28;20095;-78
2022/08/27 02:05:23;;;;;;;9.45;4.38;;;;;;;14.78;83.32;101645.84;5037326;28;20129;-79
2022/08/27 02:07:49;;;;;;;6.75;3.92;;;;;;;14.77;82.28;101644.13;5026822;28;20081;-78
2022/08/27 02:10:19;;;;;;;9.65;4.30;;;;;;;14.75;82.71;101648.75;5054321;28;20029;-79
2022/08/27 02:12:44;;;;;;;10.52;4.35;;;;;;;14.74;82.57;101639.91;5058841;28;20063;-79
2022/08/27 02:15:10;;;;;;;6.47;4.13;;;;;;;14.73;83.31;101640.00;5041168;28;20033;-78
2022/08/27 02:17:37;;;;;;;7.30;4.50;;;;;;;14.68;83.33;101640.38;5047328;28;20064;-78
2022/08/27 02:20:04;;;;;;;7.43;4.63;;;;;;;14.68;83.22;101640.38;5050142;28;20547;-79
2022/08/27 02:22:30;;;;;;;11.65;4.90;;;;;;;14.63;82.74;101641.75;5038088;28;20022;-79
2022/08/27 02:24:55;;;;;;;7.10;4.57;;;;;;;14.60;82.61;101642.81;5036105;28;20022;-78
2022/08/27 02:27:21;;;;;;;8.90;4.93;;;;;;;14.60;82.77;101633.00;5047141;28;20029;-79
2022/08/27 02:29:46;;;;;;;10.93;5.20;;;;;;;14.57;82.75;101635.88;5041321;28;20397;-79
2022/08/27 02:32:14;;;;;;;9.38;4.93;;;;;;;14.53;82.90;101625.56;5044726;28;20030;-78
2022/08/27 02:34:39;;;;;;;7.60;5.25;;;;;;;14.52;83.76;101632.75;5039089;28;20044;-78
2022/08/27 02:37:06;;;;;;;10.10;5.50;;;;;;;14.52;83.72;101619.38;5057235;28;20108;-79
2022/08/27 02:39:34;;;;;;;8.98;5.18;;;;;;;14.51;83.00;101619.50;5042749;28;20037;-78
2022/08/27 02:41:59;;;;;;;8.32;5.57;;;;;;;14.47;83.70;101626.91;5046887;28;20052;-79
2022/08/27 02:44:25;;;;;;;9.57;5.60;;;;;;;14.49;84.49;101626.78;5055535;28;20033;-79
2022/08/27 02:46:51;;;;;;;7.53;5.60;;;;;;;14.45;83.66;101628.84;5048960;28;20053;-78
2022/08/27 02:49:16;;;;;;;8.48;5.32;;;;;;;14.38;83.53;101627.66;5042039;28;20033;-79
2022/08/27 02:51:42;;;;;;;11.20;5.50;;;;;;;14.38;84.44;101631.16;5041788;28;20041;-79
2022/08/27 02:54:08;;;;;;;10.82;5.82;;;;;;;14.39;84.44;101629.34;5057692;28;20041;-78
2022/08/27 02:56:34;;;;;;;9.90;5.60;;;;;;;14.40;84.30;101626.53;5044172;28;20458;-78
2022/08/27 02:58:59;;;;;;;8.13;5.28;;;;;;;14.39;85.05;101624.84;5043363;28;20030;-78
2022/08/27 03:01:25;;;;;;;9.23;6.10;;;;;;;14.38;84.70;101628.50;5049930;28;20025;-79
2022/08/27 03:03:50;;;;;;;10.00;6.28;;;;;;;14.35;85.54;101622.53;5061719;28;20066;-79
2022/08/27 03:06:16;;;;;;;6.72;5.05;;;;;;;14.41;85.76;101638.94;5046236;28;20036;-79
2022/08/27 03:08:41;;;;;;;14.23;5.72;;;;;;;14.38;84.84;101628.50;5038472;28;20023;-79
2022/08/27 03:11:07;;;;;;;9.93;5.53;;;;;;;14.42;85.51;101632.63;5057297;28;20017;-79
2022/08/27 03:13:37;;;;;;;13.25;5.20;;;;;;;14.42;85.28;101627.28;5052370;28;20029;-79
2022/08/27 03:16:03;;;;;;;14.43;5.53;;;;;;;14.42;85.92;101629.09;5051282;28;20040;-79
2022/08/27 03:18:31;;;;;;;9.77;6.18;;;;;;;14.47;86.08;101628.72;5050932;28;20048;-77
2022/08/27 03:20:59;;;;;;;8.20;5.85;;;;;;;14.48;86.74;101633.09;5039236;28;20051;-77
2022/08/27 03:23:27;;;;;;;10.50;6.20;;;;;;;14.47;86.19;101634.94;5044819;28;20071;-77
2022/08/27 03:25:58;;;;;;;11.55;5.70;;;;;;;14.50;85.59;101637.34;5040258;28;20558;-77
2022/08/27 03:28:27;;;;;;;10.38;5.38;;;;;;;14.50;87.10;101633.81;5044557;28;20025;-77
2022/08/27 03:30:57;;;;;;;9.98;5.97;;;;;;;14.48;86.22;101635.78;5036933;28;20049;-77
2022/08/27 03:33:25;;;;;;;12.13;6.07;;;;;;;14.51;86.12;101638.22;5037052;28;20033;-77
2022/08/27 03:35:51;;;;;;;8.07;5.70;;;;;;;14.53;86.54;101628.25;5036926;28;20411;-77
2022/08/27 03:38:17;;;;;;;9.02;5.30;;;;;;;14.54;85.74;101633.47;5031127;28;20476;-78
2022/08/27 03:40:43;;;;;;;12.70;5.75;;;;;;;14.52;84.94;101629.19;5044892;28;20022;-77
2022/08/27 03:43:11;;;;;;;9.07;5.53;;;;;;;14.52;86.18;101635.41;5052898;28;20025;-78
2022/08/27 03:45:36;;;;;;;8.93;5.88;;;;;;;14.48;85.38;101636.63;5046316;28;20018;-79
2022/08/27 03:48:02;;;;;;;10.57;6.05;;;;;;;14.48;85.68;101639.28;5051011;28;20025;-79
2022/08/27 03:50:27;;;;;;;10.80;5.95;;;;;;;14.42;85.15;101631.75;5057153;28;20353;-79
2022/08/27 03:52:53;;;;;;;14.75;6.13;;;;;;;14.46;85.51;101643.09;5063113;28;20098;-79
2022/08/27 03:55:18;;;;;;;12.30;5.40;;;;;;;14.50;85.48;101636.50;5063323;28;20021;-79
2022/08/27 03:57:44;;;;;;;12.13;5.68;;;;;;;14.47;86.18;101636.75;5049047;28;20024;-78
2022/08/27 04:00:12;;;;;;;11.88;5.68;;;;;;;14.41;86.09;101640.78;5055665;28;20041;-79
2022/08/27 04:02:38;;;;;;;13.10;6.13;;;;;;;14.41;86.70;101636.25;5039262;28;20052;-79
2022/08/27 04:05:05;;;;;;;13.80;5.88;;;;;;;14.37;85.84;101637.50;5073952;28;20055;-79
2022/08/27 04:07:31;;;;;;;14.55;5.45;;;;;;;14.36;86.38;101627.78;5033043;28;20049;-79
2022/08/27 04:09:57;;;;;;;8.73;5.43;;;;;;;14.40;86.73;101631.03;5057026;28;20356;-79
2022/08/27 04:12:23;;;;;;;11.73;6.18;;;;;;;14.40;85.77;101637.22;5044883;28;20032;-79
2022/08/27 04:14:48;;;;;;;10.25;5.72;;;;;;;14.42;86.21;101631.75;5048010;28;20101;-79
2022/08/27 04:17:14;;;;;;;14.23;6.70;;;;;;;14.40;86.67;101626.53;5066891;28;20028;-79
2022/08/27 04:19:39;;;;;;;13.25;5.38;;;;;;;14.46;86.41;101635.06;5064682;28;20033;-79
2022/08/27 04:22:06;;;;;;;13.45;5.38;;;;;;;14.41;85.77;101635.44;5068232;28;20029;-79
2022/08/27 04:24:34;;;;;;;9.90;5.57;;;;;;;14.35;86.26;101627.88;5054899;28;20029;-79
2022/08/27 04:27:00;;;;;;;10.20;5.70;;;;;;;14.34;85.85;101627.06;5066137;28;20052;-78
2022/08/27 04:29:26;;;;;;;11.93;5.90;;;;;;;14.37;86.43;101625.94;5054725;28;20029;-79
2022/08/27 04:31:52;;;;;;;16.50;5.45;;;;;;;14.34;86.51;101628.84;5064214;28;20080;-79
2022/08/27 04:34:17;;;;;;;10.55;5.28;;;;;;;14.36;85.91;101634.94;5050311;28;20039;-80
2022/08/27 04:36:43;;;;;;;12.88;5.97;;;;;;;14.32;86.41;101636.16;5059181;28;20021;-79
2022/08/27 04:39:08;;;;;;;8.68;5.70;;;;;;;14.32;86.27;101633.47;5048024;28;20104;-80
2022/08/27 04:41:34;;;;;;;11.15;5.65;;;;;;;14.24;85.77;101639.44;5055144;28;20032;-79
2022/08/27 04:44:06;;;;;;;10.10;6.03;;;;;;;14.28;86.64;101634.72;5067959;28;20088;-79
2022/08/27 04:46:36;;;;;;;9.15;5.93;;;;;;;14.24;86.72;101640.28;5034479;28;20091;-79
2022/08/27 04:49:08;;;;;;;13.75;5.90;;;;;;;14.24;86.96;101648.31;5059675;28;20733;-79
2022/08/27 04:51:34;;;;;;;10.85;5.55;;;;;;;14.22;86.15;101644.91;5049577;28;20128;-80
2022/08/27 04:54:04;;;;;;;13.20;5.90;;;;;;;14.21;87.36;101645.03;5064188;28;20033;-79
2022/08/27 04:56:30;;;;;;;11.65;6.00;;;;;;;14.19;87.03;101644.31;5059002;28;20037;-79
2022/08/27 04:58:55;;;;;;;11.18;5.72;;;;;;;14.19;86.34;101645.16;5062468;28;20059;-78
2022/08/27 05:01:24;;;;;;;13.25;6.82;;;;;;;14.17;86.90;101638.22;5044474;28;20056;-78
2022/08/27 05:03:50;;;;;;;10.75;6.57;;;;;;;14.18;87.95;101648.78;5054270;28;20076;-78
2022/08/27 05:06:16;;;;;;;13.18;5.95;;;;;;;14.20;88.33;101652.19;5048480;28;20029;-78
2022/08/27 05:08:41;;;;;;;11.32;6.05;;;;;;;14.21;87.78;101653.06;5038780;28;20031;-78
2022/08/27 05:11:10;;;;;;;10.90;6.32;;;;;;;14.20;87.72;101649.50;5046792;28;20025;-78
2022/08/27 05:13:36;;;;;;;18.17;6.75;;;;;;;14.28;88.14;101654.25;5035042;28;20079;-79
2022/08/27 05:16:05;;;;;;;10.40;6.47;;;;;;;14.30;88.23;101648.78;5047464;28;20479;-78
2022/08/27 05:18:32;;;;;;;10.75;5.85;;;;;;;14.33;88.53;101644.03;5040356;28;20030;-78
2022/08/27 05:20:58;;;;;;;13.35;6.80;;;;;;;14.37;88.62;101652.66;5033214;28;20033;-78
2022/08/27 05:23:24;;;;;;;12.32;6.63;;;;;;;14.38;88.55;101649.03;5036438;28;20391;-78
2022/08/27 05:25:50;;;;;;;11.80;6.40;;;;;;;14.41;88.22;101649.63;5053247;28;20025;-79
2022/08/27 05:28:20;;;;;;;10.32;6.07;;;;;;;14.42;88.55;101648.66;5047959;28;20018;-79
2022/08/27 05:30:48;;;;;;;10.93;6.38;;;;;;;14.47;89.01;101645.63;5047782;28;20039;-78
2022/08/27 05:33:17;;;;;;;16.30;6.75;;;;;;;14.50;89.21;101644.53;5045092;28;20017;-79
2022/08/27 05:35:51;;;;;;;13.98;6.68;;;;;;;14.57;89.13;101648.38;5048818;28;20060;-79
2022/08/27 05:38:20;;;;;;;11.73;6.38;;;;;;;14.59;88.56;101650.00;5045222;28;20029;-78
2022/08/27 05:40:47;;;;;;;12.07;7.00;;;;;;;14.64;88.84;101651.44;5036712;28;20045;-78
2022/08/27 05:43:17;;;;;;;12.82;6.65;;;;;;;14.67;89.27;101653.88;5049678;28;20033;-78
2022/08/27 05:45:47;;;;;;;15.95;8.07;;;;;;;14.68;88.76;101655.59;5037386;28;20056;-79
2022/08/27 05:48:14;;;;;;;14.30;7.20;;;;;;;14.74;88.22;101658.63;5039566;28;20030;-79
2022/08/27 05:50:42;;;;;;;12.07;6.68;;;;;;;14.79;89.23;101652.91;5058233;28;20021;-79
2022/08/27 05:53:09;;;;;;;10.13;7.10;;;;;;;14.82;89.49;101659.81;5044359;28;20052;-78
2022/08/27 05:55:36;;;;;;;12.02;6.47;;;;;;;14.86;89.34;101663.94;5038119;28;20097;-78
2022/08/27 05:58:05;;;;;;;13.15;6.97;;;;;;;14.88;88.46;101660.16;5038929;28;20026;-78
2022/08/27 06:03:14;;;;;;;11.70;6.88;;;;;;;14.98;88.63;101663.75;5069934;28;20076;-80
2022/08/27 06:05:40;;;;;;;11.18;6.88;;;;;;;15.00;87.92;101663.63;5054456;28;20030;-79
2022/08/27 06:08:05;;;;;;;12.07;7.38;;;;;;;15.04;88.32;101662.44;5062465;28;20048;-79
2022/08/27 06:10:31;;;;;;;12.63;6.68;;;;;;;15.07;87.76;101669.34;5036045;28;20061;-79
2022/08/27 06:12:56;;;;;;;10.98;6.88;;;;;;;15.10;88.47;101677.94;5054745;28;20044;-79
2022/08/27 06:15:22;;;;;;;13.70;7.60;;;;;;;15.13;87.71;101669.66;5041189;28;20509;-79
2022/08/27 06:17:49;;;;;;;13.48;7.22;;;;;;;15.18;88.31;101672.81;5034585;28;20476;-79
2022/08/27 06:20:15;;;;;;;12.32;6.28;;;;;;;15.24;88.26;101684.84;5038542;28;20091;-79
2022/08/27 06:22:40;;;;;;;14.65;7.10;;;;;;;15.29;89.12;101681.81;5036022;28;20029;-80
2022/08/27 06:25:06;;;;;;;17.35;7.30;;;;;;;15.31;87.88;101679.84;5038619;28;20468;-80
2022/08/27 06:27:34;;;;;;;12.13;7.13;;;;;;;15.36;88.42;101678.47;5020330;28;20033;-79
2022/08/27 06:29:59;;;;;;;16.52;7.68;;;;;;;15.46;88.19;101685.75;5014986;28;20073;-81
2022/08/27 06:32:25;;;;;;;11.93;7.40;;;;;;;15.48;87.67;101678.41;5032849;28;20444;-80
2022/08/27 06:34:51;;;;;;;17.50;7.13;;;;;;;15.52;88.04;101679.84;5031623;28;20069;-80
2022/08/27 06:37:16;;;;;;;13.40;7.73;;;;;;;15.56;87.46;101675.94;5035683;28;20112;-80
2022/08/27 06:39:41;;;;;;;10.68;7.40;;;;;;;15.62;88.47;101677.25;5014455;28;20312;-79
2022/08/27 06:42:11;;;;;;;12.48;7.55;;;;;;;15.65;87.98;101672.47;5032246;28;20037;-81
2022/08/27 06:44:36;;;;;;;12.95;7.20;;;;;;;15.73;87.89;101674.50;5037237;28;20076;-80
2022/08/27 06:47:02;;;;;;;13.00;7.30;;;;;;;15.78;88.31;101677.66;5030233;28;20041;-81
2022/08/27 06:49:28;;;;;;;11.95;6.47;;;;;;;15.84;88.55;101669.13;5047553;28;20124;-80
2022/08/27 06:51:53;;;;;;;10.13;6.75;;;;;;;15.90;87.07;101671.28;5034954;28;20060;-81
2022/08/27 06:54:19;;;;;;;11.07;6.43;;;;;;;15.93;87.09;101672.81;5032533;28;20497;-80
2022/08/27 06:56:45;;;;;;;13.50;7.22;;;;;;;16.01;86.32;101675.69;5035446;28;20040;-81
2022/08/27 06:59:14;;;;;;;11.90;6.88;;;;;;;16.04;87.25;101667.41;5034369;28;20052;-79
2022/08/27 07:01:40;;;;;;;;;;;;;;;16.19;85.96;101678.63;5027864;28;20116;-80
2022/08/27 07:04:07;;;;;;;13.55;7.32;;;;;;;16.16;87.38;101673.53;5034838;28;19913;-80
2022/08/27 07:06:34;;;;;;;11.48;7.30;;;;;;;16.22;86.28;101674.81;5044181;28;20028;-80
2022/08/27 07:09:00;;;;;;;13.25;6.93;;;;;;;16.27;85.99;101677.97;5039519;28;20447;-80
2022/08/27 07:11:27;;;;;;;11.43;6.95;;;;;;;16.31;85.98;101678.53;5034132;28;20021;-80
2022/08/27 07:13:55;;;;;;;17.70;6.50;;;;;;;16.33;85.33;101673.88;5028563;28;20117;-79
2022/08/27 07:16:23;;;;;;;10.87;5.93;;;;;;;16.37;85.56;101678.84;5045545;28;20040;-79
2022/08/27 07:18:52;;;;;;;10.52;7.07;;;;;;;16.46;85.84;101679.84;5037698;28;20037;-81
2022/08/27 07:21:20;;;;;;;13.55;6.90;;;;;;;16.58;84.88;101680.59;5026042;28;20022;-82
2022/08/27 07:23:47;;;;;;;10.68;6.40;;;;;;;16.64;83.63;101677.38;5021902;28;20366;-82
2022/08/27 07:26:14;;;;;;;8.70;5.78;;;;;;;16.76;83.64;101683.47;5049801;28;20090;-83
2022/08/27 07:28:41;;;;;;;8.70;5.90;;;;;;;16.82;83.89;101678.41;5060283;28;20489;-82
2022/08/27 07:31:10;;;;;;;9.52;6.22;;;;;;;16.93;84.83;101674.78;5042977;28;20029;-82
2022/08/27 07:33:39;;;;;;;10.90;6.07;;;;;;;17.02;83.58;101678.47;5036483;28;20026;-82
2022/08/27 07:36:06;;;;;;;9.88;5.88;;;;;;;17.13;83.30;101681.00;5039844;28;20044;-82
2022/08/27 07:38:35;;;;;;;13.15;5.65;;;;;;;17.22;81.87;101684.72;5052782;28;20441;-83
2022/08/27 07:41:08;;;;;;;;;;;;;;;17.34;82.86;101682.72;5047755;28;20037;-82
2022/08/27 07:46:17;;;;;;;10.55;5.38;;;;;;;17.52;79.85;101691.78;5049398;28;20048;-82
2022/08/27 07:48:42;;;;;;;13.32;4.93;;;;;;;17.64;78.58;101688.94;5039637;28;20033;-81
2022/08/27 07:51:16;;;;;;;8.57;4.80;;;;;;;17.70;77.73;101685.66;5038836;28;20017;-81
2022/08/27 07:53:43;;;;;;;8.85;5.28;;;;;;;17.91;77.01;101694.41;5053982;28;20033;-80
2022/08/27 07:56:09;;;;;;;7.95;4.43;;;;;;;18.01;75.76;101693.56;5050073;28;20079;-81
2022/08/27 07:58:35;;;;;;;7.97;4.40;;;;;;;18.15;74.59;101700.31;5040098;28;20024;-81
2022/08/27 08:01:00;;;;;;;11.05;4.80;;;;;;;18.33;74.68;101689.63;5046959;28;20553;-80
2022/08/27 08:03:26;;;;;;;5.85;4.10;;;;;;;18.41;73.13;101695.94;5032482;28;20026;-81
2022/08/27 08:05:52;;;;;;;9.38;4.57;;;;;;;18.50;75.27;101694.22;5037073;28;20029;-81
2022/08/27 08:08:19;;;;;;;8.02;4.10;;;;;;;18.54;73.30;101701.00;5036941;28;20034;-81
2022/08/27 08:10:48;;;;;;;6.95;4.20;;;;;;;18.71;72.92;101701.22;5046964;28;20029;-80
2022/08/27 08:13:15;;;;;;;6.30;4.00;;;;;;;18.81;70.95;101694.75;5034132;28;20033;-82
2022/08/27 08:15:45;;;;;;;6.53;3.60;;;;;;;18.87;72.34;101687.97;5033245;28;20045;-81
2022/08/27 08:18:12;;;;;;;10.13;3.83;;;;;;;19.10;72.00;101693.78;5029035;28;20123;-83
2022/08/27 08:20:37;;;;;;;6.05;3.70;;;;;;;19.18;69.57;101691.13;5055629;28;20098;-80
2022/08/27 08:23:03;;;;;;;11.02;3.90;;;;;;;19.44;68.28;101695.75;5043916;28;20457;-79
2022/08/27 08:25:28;;;;;;;8.73;3.23;;;;;;;19.77;68.42;101702.28;5033388;28;20033;-80
2022/08/27 08:27:54;;;;;;;8.32;4.00;;;;;;;19.99;67.00;101692.00;5036076;28;20340;-80
2022/08/27 08:30:20;;;;;;;7.38;3.80;;;;;;;20.26;64.27;101695.50;5040287;28;20053;-81
2022/08/27 08:32:46;;;;;;;8.65;3.70;;;;;;;20.38;64.14;101699.59;5039735;28;20052;-80
2022/08/27 08:35:11;;;;;;;10.48;4.00;;;;;;;20.58;63.39;101694.81;5035598;28;20112;-80
2022/08/27 08:37:37;;;;;;;7.32;4.10;;;;;;;20.87;63.86;101699.00;5032898;28;20222;-80
2022/08/27 08:40:03;;;;;;;4.88;3.65;;;;;;;21.15;63.81;101696.88;5049508;28;20021;-80
2022/08/27 08:42:43;;;;;;;5.75;3.90;;;;;;;21.41;63.83;101695.88;5054635;28;20025;-81
2022/08/27 08:45:11;;;;;;;6.97;3.72;;;;;;;21.52;60.39;101694.72;5044756;28;20036;-82
2022/08/27 08:47:45;;;;;;;7.57;3.85;;;;;;;21.85;60.67;101695.56;5046337;28;20034;-81
2022/08/27 08:50:26;;;;;;;6.43;3.47;;;;;;;22.21;60.10;101695.13;5051305;28;20044;-82
2022/08/27 08:53:03;;;;;;;6.45;3.30;;;;;;;22.37;57.87;101688.03;5055881;28;20048;-82
2022/08/27 08:55:47;;;;;;;6.03;3.33;;;;;;;22.53;58.14;101691.50;5036479;28;20128;-82
2022/08/27 08:58:46;;;;;;;5.95;2.85;;;;;;;22.88;59.41;101683.88;5058372;28;20029;-81
2022/08/27 09:01:17;;;;;;;5.68;3.05;;;;;;;23.10;56.59;101689.53;5052600;28;20029;-81
2022/08/27 09:03:50;;;;;;;7.28;3.45;;;;;;;23.19;56.40;101695.72;5050297;28;20021;-82
2022/08/27 09:06:41;;;;;;;4.35;2.88;;;;;;;23.30;54.74;101695.31;5064575;28;20029;-84
2022/08/27 09:09:27;;;;;;;7.05;2.95;;;;;;;23.37;55.22;101700.84;5055658;28;20416;-84
2022/08/27 09:12:00;;;;;;;5.50;2.83;;;;;;;23.22;54.53;101700.78;5051915;28;20033;-82
2022/08/27 09:14:36;;;;;;;5.55;2.35;;;;;;;23.15;55.23;101707.94;5043247;28;20026;-80
2022/08/27 09:17:02;;;;;;;4.97;2.88;;;;;;;23.06;52.09;101694.44;5060047;28;20060;-81
2022/08/27 09:19:27;;;;;;;5.53;1.92;;;;;;;23.06;51.93;101709.81;5051729;28;20029;-80
2022/08/27 09:22:04;;;;;;;6.72;2.30;;;;;;;23.02;52.35;101706.63;5051143;28;20037;-80
2022/08/27 09:24:50;;;;;;;5.43;1.88;;;;;;;23.05;53.38;101703.56;5043683;28;20120;-80
2022/08/27 09:27:15;;;;;;;6.55;2.15;;;;;;;23.15;50.38;101710.63;5051781;28;20436;-80
2022/08/27 09:30:09;;;;;;;6.23;2.20;;;;;;;23.33;53.53;101707.63;5052233;28;20025;-81
2022/08/27 09:32:35;;;;;;;3.35;2.20;;;;;;;23.23;49.34;101710.59;5044803;28;20268;-81
2022/08/27 09:35:07;;;;;;;4.60;1.80;;;;;;;23.39;49.60;101701.50;5046070;28;20033;-80
2022/08/27 09:37:40;;;;;;;4.65;2.22;;;;;;;23.38;49.96;101700.66;5050563;28;20037;-81
2022/08/27 09:40:13;;;;;;;7.95;2.30;;;;;;;23.22;49.53;101706.22;5056290;28;20021;-81
2022/08/27 09:42:47;;;;;;;5.13;2.22;;;;;;;23.22;51.12;101711.63;5060088;28;20044;-80
2022/08/27 09:45:15;;;;;;;5.25;1.83;;;;;;;23.01;47.85;101704.94;5061754;28;20044;-80
2022/08/27 09:47:47;;;;;;;7.80;1.90;;;;;;;23.30;49.46;101708.00;5057225;28;20174;-80
2022/08/27 09:50:16;;;;;;;5.72;2.13;;;;;;;23.39;48.25;101710.47;5057250;28;20025;-80
2022/08/27 09:52:47;;;;;;;;;;;;;;;23.74;51.22;101707.31;5065126;28;20029;-80
2022/08/27 09:55:28;;;;;;;3.03;2.20;;;;;;;23.91;48.99;101711.56;5076934;28;20006;-82
2022/08/27 09:57:54;;;;;;;5.10;2.05;;;;;;;23.98;45.75;101708.97;5048589;28;20049;-81
2022/08/27 10:00:32;;;;;;;5.65;2.00;;;;;;;24.25;47.35;101714.78;5075620;28;20017;-80
2022/08/27 10:03:00;;;;;;;3.33;2.03;;;;;;;24.44;45.62;101714.22;5065407;28;20037;-80
2022/08/27 10:05:35;;;;;;;4.30;1.85;;;;;;;24.68;45.79;101706.81;5046981;28;20036;-80
2022/08/27 10:08:07;;;;;;;4.47;1.98;;;;;;;24.77;44.83;101707.56;5051998;28;20048;-81
2022/08/27 10:10:52;;;;;;;4.47;2.10;;;;;;;25.14;46.65;101698.34;5057658;28;20037;-81
2022/08/27 10:13:36;;;;;;;4.68;2.20;;;;;;;25.22;46.20;101692.78;5054664;28;20033;-80
2022/08/27 10:16:13;;;;;;;8.07;2.33;;;;;;;25.16;45.98;101699.00;5057855;28;20109;-81
2022/08/27 10:19:03;;;;;;;3.08;1.80;;;;;;;25.04;44.87;101697.84;5052426;28;20022;-81
2022/08/27 10:21:55;;;;;;;3.72;2.20;;;;;;;24.96;46.36;101696.06;5057643;28;20032;-80
2022/08/27 10:24:54;;;;;;;3.78;2.22;;;;;;;24.82;47.93;101692.38;5057797;28;20026;-80
2022/08/27 10:27:26;;;;;;;5.35;2.05;;;;;;;24.66;44.91;101689.88;5054658;28;20033;-80
2022/08/27 10:30:02;;;;;;;5.47;2.25;;;;;;;24.60;46.18;101688.78;5061343;28;20025;-80
2022/08/27 10:32:51;;;;;;;4.05;2.33;;;;;;;24.74;47.44;101687.03;5058593;28;20669;-81
2022/08/27 10:35:21;;;;;;;3.38;2.00;;;;;;;24.96;46.44;101687.09;5056652;28;20052;-81
2022/08/27 10:38:21;;;;;;;4.30;2.00;;;;;;;25.18;47.47;101686.06;5058183;28;20032;-82
2022/08/27 10:40:53;;;;;;;3.63;2.20;;;;;;;25.02;44.37;101680.88;5059470;28;20041;-80
2022/08/27 10:43:40;;;;;;;3.67;2.10;;;;;;;24.98;45.70;101676.84;5049026;28;20033;-81
2022/08/27 10:46:30;;;;;;;4.80;2.20;;;;;;;24.94;46.11;101679.13;5052846;28;20045;-80
2022/08/27 10:49:13;;;;;;;6.78;2.47;;;;;;;24.77;45.88;101675.81;5050112;28;20025;-80
2022/08/27 10:51:49;;;;;;;6.38;2.40;;;;;;;24.82;45.37;101681.50;5046818;28;20369;-81
2022/08/27 10:54:57;;;;;;;5.80;2.30;;;;;;;24.71;45.82;101679.28;5050575;28;20030;-80
2022/08/27 10:57:50;;;;;;;4.95;2.28;;;;;;;24.47;44.98;101681.25;5032877;28;20045;-80
2022/08/27 11:00:18;;;;;;;3.28;2.20;;;;;;;24.23;45.67;101678.84;5047900;28;20046;-81
2022/08/27 11:02:53;;;;;;;7.75;2.20;;;;;;;24.09;45.81;101678.66;5041325;28;20037;-80
2022/08/27 11:05:36;;;;;;;4.32;2.38;;;;;;;24.04;46.44;101683.78;5041290;28;20048;-81
2022/08/27 11:08:26;;;;;;;4.03;2.20;;;;;;;23.79;45.75;101688.59;5032601;28;20061;-81
2022/08/27 11:11:14;;;;;;;6.47;2.42;;;;;;;23.75;47.62;101687.31;5019303;28;20432;-79
2022/08/27 11:13:50;;;;;;;4.13;1.93;;;;;;;23.62;47.05;101685.22;5032682;28;20091;-79
2022/08/27 11:16:46;;;;;;;5.00;2.20;;;;;;;23.64;47.29;101689.41;5035044;28;20072;-79
2022/08/27 11:19:21;;;;;;;4.38;1.92;;;;;;;23.56;47.42;101680.50;5032518;28;20083;-79
2022/08/27 11:22:02;;;;;;;6.28;1.90;;;;;;;23.58;48.52;101679.31;5015017;28;20030;-81
2022/08/27 11:24:39;;;;;;;3.88;2.03;;;;;;;23.52;49.49;101679.22;5032652;28;20029;-79
2022/08/27 11:27:06;;;;;;;4.30;2.00;;;;;;;23.61;47.99;101678.09;5036614;28;20041;-76
2022/08/27 11:30:00;;;;;;;5.10;2.13;;;;;;;23.79;48.75;101675.88;5050881;28;20533;-77
2022/08/27 11:32:58;;;;;;;5.20;1.77;;;;;;;23.86;48.80;101669.75;5046816;28;20037;-78
2022/08/27 11:35:35;;;;;;;7.40;2.20;;;;;;;23.90;47.31;101668.34;5016359;28;20037;-78
2022/08/27 11:38:28;;;;;;;4.60;2.30;;;;;;;23.86;47.09;101664.31;5049636;28;20096;-79
2022/08/27 11:41:07;;;;;;;4.53;2.15;;;;;;;23.90;47.26;101665.63;5046757;28;20045;-78
2022/08/27 11:43:35;;;;;;;3.70;2.00;;;;;;;24.04;46.61;101670.22;5055562;28;20029;-80